sensor_id;sensor_type;location;lat;lon;timestamp;P1;durP1;ratioP1;P2;durP2;ratioP2
18695;SDS011;22617;43.690;27.956;2022-12-18T00:03:35;16.17;;;7.60;;
18695;SDS011;22617;43.690;27.956;2022-12-18T00:08:39;13.40;;;7.47;;
18695;SDS011;22617;43.690;27.956;2022-12-18T00:13:44;13.77;;;7.77;;
18695;SDS011;22617;43.690;27.956;2022-12-18T00:18:50;14.37;;;8.33;;
18695;SDS011;22617;43.690;27.956;2022-12-18T00:23:55;15.53;;;8.77;;
18695;SDS011;22617;43.690;27.956;2022-12-18T00:29:00;15.90;;;7.97;;
18695;SDS011;22617;43.690;27.956;2022-12-18T00:34:08;16.67;;;8.00;;
18695;SDS011;22617;43.690;27.956;2022-12-18T00:39:14;16.03;;;8.07;;
18695;SDS011;22617;43.690;27.956;2022-12-18T00:44:18;14.23;;;7.87;;
18695;SDS011;22617;43.690;27.956;2022-12-18T00:49:23;16.77;;;9.17;;
18695;SDS011;22617;43.690;27.956;2022-12-18T00:54:27;15.73;;;8.30;;
18695;SDS011;22617;43.690;27.956;2022-12-18T00:59:31;13.83;;;8.17;;
18695;SDS011;22617;43.690;27.956;2022-12-18T01:04:35;14.97;;;7.90;;
18695;SDS011;22617;43.690;27.956;2022-12-18T01:09:39;14.77;;;7.93;;
18695;SDS011;22617;43.690;27.956;2022-12-18T01:14:43;14.20;;;7.87;;
18695;SDS011;22617;43.690;27.956;2022-12-18T01:19:50;14.33;;;7.60;;
18695;SDS011;22617;43.690;27.956;2022-12-18T01:24:53;14.10;;;8.40;;
18695;SDS011;22617;43.690;27.956;2022-12-18T01:29:57;16.33;;;8.13;;
18695;SDS011;22617;43.690;27.956;2022-12-18T01:35:02;13.90;;;7.70;;
18695;SDS011;22617;43.690;27.956;2022-12-18T01:40:07;15.43;;;8.23;;
18695;SDS011;22617;43.690;27.956;2022-12-18T01:45:23;15.07;;;7.53;;
18695;SDS011;22617;43.690;27.956;2022-12-18T01:50:32;13.63;;;7.57;;
18695;SDS011;22617;43.690;27.956;2022-12-18T01:55:39;13.27;;;7.00;;
18695;SDS011;22617;43.690;27.956;2022-12-18T02:00:47;14.00;;;8.03;;
18695;SDS011;22617;43.690;27.956;2022-12-18T02:05:57;14.27;;;7.90;;
18695;SDS011;22617;43.690;27.956;2022-12-18T02:11:09;14.77;;;7.97;;
18695;SDS011;22617;43.690;27.956;2022-12-18T02:16:19;14.13;;;7.67;;
18695;SDS011;22617;43.690;27.956;2022-12-18T02:21:31;13.63;;;7.63;;
18695;SDS011;22617;43.690;27.956;2022-12-18T02:26:42;14.33;;;8.47;;
18695;SDS011;22617;43.690;27.956;2022-12-18T02:31:49;13.27;;;7.43;;
18695;SDS011;22617;43.690;27.956;2022-12-18T02:36:57;14.63;;;7.80;;
18695;SDS011;22617;43.690;27.956;2022-12-18T02:42:06;14.37;;;7.40;;
18695;SDS011;22617;43.690;27.956;2022-12-18T02:47:10;12.93;;;7.50;;
18695;SDS011;22617;43.690;27.956;2022-12-18T02:52:18;13.20;;;7.30;;
18695;SDS011;22617;43.690;27.956;2022-12-18T02:57:33;12.60;;;7.30;;
18695;SDS011;22617;43.690;27.956;2022-12-18T03:02:41;12.80;;;7.00;;
18695;SDS011;22617;43.690;27.956;2022-12-18T03:07:52;15.50;;;7.63;;
18695;SDS011;22617;43.690;27.956;2022-12-18T03:13:06;15.33;;;7.60;;
18695;SDS011;22617;43.690;27.956;2022-12-18T03:18:13;15.13;;;7.97;;
18695;SDS011;22617;43.690;27.956;2022-12-18T03:23:21;16.83;;;8.10;;
18695;SDS011;22617;43.690;27.956;2022-12-18T03:28:28;14.20;;;8.50;;
18695;SDS011;22617;43.690;27.956;2022-12-18T03:33:38;16.90;;;8.40;;
18695;SDS011;22617;43.690;27.956;2022-12-18T03:38:45;19.20;;;8.83;;
18695;SDS011;22617;43.690;27.956;2022-12-18T03:43:52;14.47;;;8.07;;
18695;SDS011;22617;43.690;27.956;2022-12-18T03:49:05;19.07;;;9.23;;
18695;SDS011;22617;43.690;27.956;2022-12-18T03:54:15;19.87;;;9.80;;
18695;SDS011;22617;43.690;27.956;2022-12-18T03:59:29;18.70;;;9.67;;
18695;SDS011;22617;43.690;27.956;2022-12-18T04:04:35;21.10;;;10.07;;
18695;SDS011;22617;43.690;27.956;2022-12-18T04:09:41;25.77;;;10.73;;
18695;SDS011;22617;43.690;27.956;2022-12-18T04:14:49;24.53;;;10.77;;
18695;SDS011;22617;43.690;27.956;2022-12-18T04:19:52;27.83;;;12.73;;
18695;SDS011;22617;43.690;27.956;2022-12-18T04:24:58;29.70;;;12.93;;
18695;SDS011;22617;43.690;27.956;2022-12-18T04:30:11;28.47;;;12.80;;
18695;SDS011;22617;43.690;27.956;2022-12-18T04:35:15;30.17;;;13.70;;
18695;SDS011;22617;43.690;27.956;2022-12-18T04:40:19;32.20;;;14.37;;
18695;SDS011;22617;43.690;27.956;2022-12-18T04:45:25;31.33;;;13.57;;
18695;SDS011;22617;43.690;27.956;2022-12-18T04:50:29;35.43;;;15.43;;
18695;SDS011;22617;43.690;27.956;2022-12-18T04:55:33;34.63;;;14.70;;
18695;SDS011;22617;43.690;27.956;2022-12-18T05:00:38;31.90;;;15.17;;
18695;SDS011;22617;43.690;27.956;2022-12-18T05:05:41;38.97;;;15.93;;
18695;SDS011;22617;43.690;27.956;2022-12-18T05:10:45;45.80;;;18.30;;
18695;SDS011;22617;43.690;27.956;2022-12-18T05:15:52;39.10;;;17.37;;
18695;SDS011;22617;43.690;27.956;2022-12-18T05:20:56;41.07;;;18.13;;
18695;SDS011;22617;43.690;27.956;2022-12-18T05:26:00;46.47;;;18.93;;
18695;SDS011;22617;43.690;27.956;2022-12-18T05:31:07;51.20;;;20.13;;
18695;SDS011;22617;43.690;27.956;2022-12-18T05:36:11;49.00;;;19.00;;
18695;SDS011;22617;43.690;27.956;2022-12-18T05:41:15;53.23;;;20.87;;
18695;SDS011;22617;43.690;27.956;2022-12-18T05:46:20;59.90;;;22.87;;
18695;SDS011;22617;43.690;27.956;2022-12-18T05:51:24;62.43;;;21.53;;
18695;SDS011;22617;43.690;27.956;2022-12-18T05:56:27;53.47;;;21.17;;
18695;SDS011;22617;43.690;27.956;2022-12-18T06:01:32;58.17;;;21.67;;
18695;SDS011;22617;43.690;27.956;2022-12-18T06:06:36;60.53;;;23.03;;
18695;SDS011;22617;43.690;27.956;2022-12-18T06:11:40;60.93;;;22.93;;
18695;SDS011;22617;43.690;27.956;2022-12-18T06:16:44;63.93;;;22.83;;
18695;SDS011;22617;43.690;27.956;2022-12-18T06:21:48;59.90;;;23.47;;
18695;SDS011;22617;43.690;27.956;2022-12-18T06:26:52;65.03;;;23.63;;
18695;SDS011;22617;43.690;27.956;2022-12-18T06:31:57;76.13;;;27.60;;
18695;SDS011;22617;43.690;27.956;2022-12-18T06:37:02;98.00;;;33.33;;
18695;SDS011;22617;43.690;27.956;2022-12-18T06:42:06;73.43;;;27.83;;
18695;SDS011;22617;43.690;27.956;2022-12-18T06:47:11;78.33;;;28.77;;
18695;SDS011;22617;43.690;27.956;2022-12-18T06:52:14;87.53;;;31.60;;
18695;SDS011;22617;43.690;27.956;2022-12-18T06:57:18;79.73;;;31.90;;
18695;SDS011;22617;43.690;27.956;2022-12-18T07:02:23;76.87;;;29.03;;
18695;SDS011;22617;43.690;27.956;2022-12-18T07:07:26;74.10;;;29.03;;
18695;SDS011;22617;43.690;27.956;2022-12-18T07:12:30;74.83;;;28.70;;
18695;SDS011;22617;43.690;27.956;2022-12-18T07:17:35;71.33;;;25.50;;
18695;SDS011;22617;43.690;27.956;2022-12-18T07:22:38;58.93;;;22.47;;
18695;SDS011;22617;43.690;27.956;2022-12-18T07:27:42;67.90;;;25.40;;
18695;SDS011;22617;43.690;27.956;2022-12-18T07:32:47;73.33;;;26.07;;
18695;SDS011;22617;43.690;27.956;2022-12-18T07:37:50;65.00;;;24.53;;
18695;SDS011;22617;43.690;27.956;2022-12-18T07:42:54;71.30;;;24.57;;
18695;SDS011;22617;43.690;27.956;2022-12-18T07:47:59;62.90;;;24.07;;
18695;SDS011;22617;43.690;27.956;2022-12-18T07:53:02;86.43;;;28.23;;
18695;SDS011;22617;43.690;27.956;2022-12-18T07:58:06;84.77;;;28.20;;
18695;SDS011;22617;43.690;27.956;2022-12-18T08:03:12;92.37;;;31.07;;
18695;SDS011;22617;43.690;27.956;2022-12-18T08:08:17;88.20;;;29.23;;
18695;SDS011;22617;43.690;27.956;2022-12-18T08:13:20;75.97;;;26.97;;
18695;SDS011;22617;43.690;27.956;2022-12-18T08:18:26;79.07;;;26.73;;
18695;SDS011;22617;43.690;27.956;2022-12-18T08:23:30;76.80;;;27.47;;
18695;SDS011;22617;43.690;27.956;2022-12-18T08:28:38;82.50;;;29.40;;
18695;SDS011;22617;43.690;27.956;2022-12-18T08:33:44;79.47;;;25.90;;
18695;SDS011;22617;43.690;27.956;2022-12-18T08:38:48;70.70;;;26.03;;
18695;SDS011;22617;43.690;27.956;2022-12-18T08:43:52;79.70;;;27.70;;
18695;SDS011;22617;43.690;27.956;2022-12-18T08:49:14;72.80;;;25.77;;
18695;SDS011;22617;43.690;27.956;2022-12-18T08:54:18;71.07;;;25.70;;
18695;SDS011;22617;43.690;27.956;2022-12-18T08:59:22;84.57;;;28.63;;
18695;SDS011;22617;43.690;27.956;2022-12-18T09:04:27;72.73;;;25.17;;
18695;SDS011;22617;43.690;27.956;2022-12-18T09:09:31;75.17;;;27.10;;
18695;SDS011;22617;43.690;27.956;2022-12-18T09:14:34;89.90;;;29.53;;
18695;SDS011;22617;43.690;27.956;2022-12-18T09:19:40;77.90;;;27.20;;
18695;SDS011;22617;43.690;27.956;2022-12-18T09:24:43;86.30;;;30.73;;
18695;SDS011;22617;43.690;27.956;2022-12-18T09:29:47;108.87;;;34.87;;
18695;SDS011;22617;43.690;27.956;2022-12-18T09:34:52;175.23;;;52.30;;
18695;SDS011;22617;43.690;27.956;2022-12-18T09:39:55;79.90;;;26.50;;
18695;SDS011;22617;43.690;27.956;2022-12-18T09:44:59;64.70;;;23.80;;
18695;SDS011;22617;43.690;27.956;2022-12-18T09:50:06;64.13;;;22.67;;
18695;SDS011;22617;43.690;27.956;2022-12-18T09:55:24;57.37;;;20.80;;
18695;SDS011;22617;43.690;27.956;2022-12-18T10:00:37;46.47;;;19.90;;
18695;SDS011;22617;43.690;27.956;2022-12-18T10:05:43;43.00;;;18.40;;
18695;SDS011;22617;43.690;27.956;2022-12-18T10:10:53;40.97;;;17.13;;
18695;SDS011;22617;43.690;27.956;2022-12-18T10:16:03;33.33;;;14.43;;
18695;SDS011;22617;43.690;27.956;2022-12-18T10:21:16;35.00;;;15.17;;
18695;SDS011;22617;43.690;27.956;2022-12-18T10:26:24;35.00;;;14.43;;
18695;SDS011;22617;43.690;27.956;2022-12-18T10:31:28;32.17;;;14.30;;
18695;SDS011;22617;43.690;27.956;2022-12-18T10:36:32;27.53;;;13.10;;
18695;SDS011;22617;43.690;27.956;2022-12-18T10:41:36;20.00;;;10.50;;
18695;SDS011;22617;43.690;27.956;2022-12-18T10:46:40;16.30;;;8.53;;
18695;SDS011;22617;43.690;27.956;2022-12-18T10:51:45;12.53;;;8.03;;
18695;SDS011;22617;43.690;27.956;2022-12-18T10:56:49;12.23;;;8.10;;
18695;SDS011;22617;43.690;27.956;2022-12-18T11:01:53;11.93;;;7.47;;
18695;SDS011;22617;43.690;27.956;2022-12-18T11:07:00;16.30;;;8.93;;
18695;SDS011;22617;43.690;27.956;2022-12-18T11:12:08;15.30;;;9.13;;
18695;SDS011;22617;43.690;27.956;2022-12-18T11:17:19;14.33;;;8.40;;
18695;SDS011;22617;43.690;27.956;2022-12-18T11:22:29;18.03;;;9.27;;
18695;SDS011;22617;43.690;27.956;2022-12-18T11:27:34;15.50;;;9.10;;
18695;SDS011;22617;43.690;27.956;2022-12-18T11:32:38;17.53;;;9.20;;
18695;SDS011;22617;43.690;27.956;2022-12-18T11:37:46;16.47;;;9.43;;
18695;SDS011;22617;43.690;27.956;2022-12-18T11:42:54;17.00;;;10.03;;
18695;SDS011;22617;43.690;27.956;2022-12-18T11:48:05;16.27;;;10.00;;
18695;SDS011;22617;43.690;27.956;2022-12-18T11:53:21;22.13;;;10.87;;
18695;SDS011;22617;43.690;27.956;2022-12-18T11:58:29;17.40;;;9.73;;
18695;SDS011;22617;43.690;27.956;2022-12-18T12:09:24;16.80;;;10.13;;
18695;SDS011;22617;43.690;27.956;2022-12-18T12:14:38;19.10;;;10.30;;
18695;SDS011;22617;43.690;27.956;2022-12-18T12:19:53;17.07;;;10.37;;
18695;SDS011;22617;43.690;27.956;2022-12-18T12:25:13;18.77;;;10.33;;
18695;SDS011;22617;43.690;27.956;2022-12-18T12:30:35;16.70;;;9.33;;
18695;SDS011;22617;43.690;27.956;2022-12-18T12:35:52;17.77;;;9.87;;
18695;SDS011;22617;43.690;27.956;2022-12-18T12:41:05;18.73;;;9.50;;
18695;SDS011;22617;43.690;27.956;2022-12-18T12:46:32;17.67;;;8.70;;
18695;SDS011;22617;43.690;27.956;2022-12-18T12:51:40;18.53;;;9.97;;
18695;SDS011;22617;43.690;27.956;2022-12-18T12:56:50;17.87;;;8.70;;
18695;SDS011;22617;43.690;27.956;2022-12-18T13:01:59;19.90;;;10.40;;
18695;SDS011;22617;43.690;27.956;2022-12-18T13:07:10;18.50;;;9.57;;
18695;SDS011;22617;43.690;27.956;2022-12-18T13:12:20;17.07;;;9.37;;
18695;SDS011;22617;43.690;27.956;2022-12-18T13:17:43;18.00;;;8.37;;
18695;SDS011;22617;43.690;27.956;2022-12-18T13:22:47;18.10;;;8.87;;
18695;SDS011;22617;43.690;27.956;2022-12-18T13:27:59;19.33;;;10.03;;
18695;SDS011;22617;43.690;27.956;2022-12-18T13:39:11;20.80;;;9.93;;
18695;SDS011;22617;43.690;27.956;2022-12-18T13:44:36;21.00;;;10.43;;
18695;SDS011;22617;43.690;27.956;2022-12-18T13:49:43;20.47;;;10.53;;
18695;SDS011;22617;43.690;27.956;2022-12-18T13:54:49;18.90;;;9.57;;
18695;SDS011;22617;43.690;27.956;2022-12-18T13:59:58;18.63;;;10.17;;
18695;SDS011;22617;43.690;27.956;2022-12-18T14:05:23;17.63;;;9.77;;
18695;SDS011;22617;43.690;27.956;2022-12-18T14:10:28;22.73;;;11.30;;
18695;SDS011;22617;43.690;27.956;2022-12-18T14:15:51;20.50;;;10.27;;
18695;SDS011;22617;43.690;27.956;2022-12-18T14:20:57;21.73;;;11.07;;
18695;SDS011;22617;43.690;27.956;2022-12-18T14:26:18;23.73;;;11.57;;
18695;SDS011;22617;43.690;27.956;2022-12-18T14:31:29;27.53;;;12.93;;
18695;SDS011;22617;43.690;27.956;2022-12-18T14:36:33;25.23;;;12.13;;
18695;SDS011;22617;43.690;27.956;2022-12-18T14:41:37;27.30;;;12.50;;
18695;SDS011;22617;43.690;27.956;2022-12-18T14:46:42;28.87;;;12.47;;
18695;SDS011;22617;43.690;27.956;2022-12-18T14:51:47;28.07;;;12.70;;
18695;SDS011;22617;43.690;27.956;2022-12-18T14:56:54;31.33;;;13.80;;
18695;SDS011;22617;43.690;27.956;2022-12-18T15:02:04;30.20;;;13.90;;
18695;SDS011;22617;43.690;27.956;2022-12-18T15:07:17;34.33;;;14.90;;
18695;SDS011;22617;43.690;27.956;2022-12-18T15:12:24;35.70;;;14.77;;
18695;SDS011;22617;43.690;27.956;2022-12-18T15:17:35;36.00;;;14.97;;
18695;SDS011;22617;43.690;27.956;2022-12-18T15:22:44;34.50;;;15.27;;
18695;SDS011;22617;43.690;27.956;2022-12-18T15:27:50;33.03;;;14.37;;
18695;SDS011;22617;43.690;27.956;2022-12-18T15:38:26;36.43;;;16.87;;
18695;SDS011;22617;43.690;27.956;2022-12-18T15:43:30;41.40;;;18.60;;
18695;SDS011;22617;43.690;27.956;2022-12-18T15:48:39;33.40;;;15.40;;
18695;SDS011;22617;43.690;27.956;2022-12-18T15:53:44;34.30;;;15.30;;
18695;SDS011;22617;43.690;27.956;2022-12-18T15:58:48;32.80;;;14.13;;
18695;SDS011;22617;43.690;27.956;2022-12-18T16:03:53;30.37;;;14.20;;
18695;SDS011;22617;43.690;27.956;2022-12-18T16:08:57;31.07;;;13.23;;
18695;SDS011;22617;43.690;27.956;2022-12-18T16:14:01;33.90;;;13.67;;
18695;SDS011;22617;43.690;27.956;2022-12-18T16:19:06;33.07;;;13.63;;
18695;SDS011;22617;43.690;27.956;2022-12-18T16:24:12;30.63;;;13.23;;
18695;SDS011;22617;43.690;27.956;2022-12-18T16:29:18;28.00;;;12.57;;
18695;SDS011;22617;43.690;27.956;2022-12-18T16:34:28;28.73;;;12.80;;
18695;SDS011;22617;43.690;27.956;2022-12-18T16:39:36;31.50;;;13.13;;
18695;SDS011;22617;43.690;27.956;2022-12-18T16:44:41;28.43;;;12.77;;
18695;SDS011;22617;43.690;27.956;2022-12-18T16:49:47;33.23;;;13.47;;
18695;SDS011;22617;43.690;27.956;2022-12-18T16:54:53;29.73;;;12.63;;
18695;SDS011;22617;43.690;27.956;2022-12-18T16:59:57;30.30;;;12.60;;
18695;SDS011;22617;43.690;27.956;2022-12-18T17:05:07;30.53;;;13.20;;
18695;SDS011;22617;43.690;27.956;2022-12-18T17:10:12;29.17;;;12.70;;
18695;SDS011;22617;43.690;27.956;2022-12-18T17:15:16;32.07;;;12.73;;
18695;SDS011;22617;43.690;27.956;2022-12-18T17:20:22;28.53;;;12.70;;
18695;SDS011;22617;43.690;27.956;2022-12-18T17:25:25;31.07;;;12.93;;
18695;SDS011;22617;43.690;27.956;2022-12-18T17:30:29;30.83;;;13.17;;
18695;SDS011;22617;43.690;27.956;2022-12-18T17:35:34;33.83;;;14.00;;
18695;SDS011;22617;43.690;27.956;2022-12-18T17:40:38;31.80;;;13.13;;
18695;SDS011;22617;43.690;27.956;2022-12-18T17:46:04;29.57;;;12.27;;
18695;SDS011;22617;43.690;27.956;2022-12-18T17:51:10;32.23;;;13.17;;
18695;SDS011;22617;43.690;27.956;2022-12-18T17:56:15;29.63;;;12.23;;
18695;SDS011;22617;43.690;27.956;2022-12-18T18:01:22;28.87;;;11.83;;
18695;SDS011;22617;43.690;27.956;2022-12-18T18:06:27;25.00;;;11.73;;
18695;SDS011;22617;43.690;27.956;2022-12-18T18:11:32;29.90;;;12.47;;
18695;SDS011;22617;43.690;27.956;2022-12-18T18:16:57;31.73;;;12.30;;
18695;SDS011;22617;43.690;27.956;2022-12-18T18:22:05;33.63;;;12.87;;
18695;SDS011;22617;43.690;27.956;2022-12-18T18:27:09;34.93;;;12.73;;
18695;SDS011;22617;43.690;27.956;2022-12-18T18:32:14;30.73;;;12.50;;
18695;SDS011;22617;43.690;27.956;2022-12-18T18:37:17;33.40;;;13.67;;
18695;SDS011;22617;43.690;27.956;2022-12-18T18:42:21;34.10;;;13.40;;
18695;SDS011;22617;43.690;27.956;2022-12-18T18:47:27;30.90;;;12.93;;
18695;SDS011;22617;43.690;27.956;2022-12-18T18:52:31;30.60;;;12.57;;
18695;SDS011;22617;43.690;27.956;2022-12-18T18:57:35;40.20;;;15.23;;
18695;SDS011;22617;43.690;27.956;2022-12-18T19:02:40;35.50;;;13.90;;
18695;SDS011;22617;43.690;27.956;2022-12-18T19:07:44;36.33;;;13.03;;
18695;SDS011;22617;43.690;27.956;2022-12-18T19:12:48;34.30;;;13.03;;
18695;SDS011;22617;43.690;27.956;2022-12-18T19:18:10;34.40;;;13.70;;
18695;SDS011;22617;43.690;27.956;2022-12-18T19:23:13;35.13;;;13.60;;
18695;SDS011;22617;43.690;27.956;2022-12-18T19:28:18;36.57;;;13.20;;
18695;SDS011;22617;43.690;27.956;2022-12-18T19:33:28;35.63;;;13.53;;
18695;SDS011;22617;43.690;27.956;2022-12-18T19:38:48;29.80;;;12.13;;
18695;SDS011;22617;43.690;27.956;2022-12-18T19:43:53;34.63;;;12.97;;
18695;SDS011;22617;43.690;27.956;2022-12-18T19:48:59;33.20;;;12.20;;
18695;SDS011;22617;43.690;27.956;2022-12-18T19:54:03;32.73;;;12.70;;
18695;SDS011;22617;43.690;27.956;2022-12-18T19:59:08;38.10;;;13.07;;
18695;SDS011;22617;43.690;27.956;2022-12-18T20:04:13;33.47;;;13.37;;
18695;SDS011;22617;43.690;27.956;2022-12-18T20:09:16;35.63;;;13.30;;
18695;SDS011;22617;43.690;27.956;2022-12-18T20:14:22;35.50;;;13.13;;
18695;SDS011;22617;43.690;27.956;2022-12-18T20:19:27;30.20;;;11.73;;
18695;SDS011;22617;43.690;27.956;2022-12-18T20:24:30;36.23;;;13.27;;
18695;SDS011;22617;43.690;27.956;2022-12-18T20:29:34;34.60;;;12.73;;
18695;SDS011;22617;43.690;27.956;2022-12-18T20:34:38;36.93;;;13.27;;
18695;SDS011;22617;43.690;27.956;2022-12-18T20:39:43;36.87;;;13.93;;
18695;SDS011;22617;43.690;27.956;2022-12-18T20:44:48;34.17;;;12.47;;
18695;SDS011;22617;43.690;27.956;2022-12-18T20:49:52;37.63;;;13.80;;
18695;SDS011;22617;43.690;27.956;2022-12-18T20:54:57;37.13;;;13.70;;
18695;SDS011;22617;43.690;27.956;2022-12-18T21:00:04;35.20;;;13.93;;
18695;SDS011;22617;43.690;27.956;2022-12-18T21:05:10;38.97;;;15.43;;
18695;SDS011;22617;43.690;27.956;2022-12-18T21:10:14;38.10;;;14.67;;
18695;SDS011;22617;43.690;27.956;2022-12-18T21:15:17;34.13;;;13.57;;
18695;SDS011;22617;43.690;27.956;2022-12-18T21:20:30;42.50;;;14.57;;
18695;SDS011;22617;43.690;27.956;2022-12-18T21:25:34;36.57;;;14.20;;
18695;SDS011;22617;43.690;27.956;2022-12-18T21:30:37;36.80;;;14.37;;
18695;SDS011;22617;43.690;27.956;2022-12-18T21:35:42;39.23;;;14.23;;
18695;SDS011;22617;43.690;27.956;2022-12-18T21:40:46;42.13;;;15.40;;
18695;SDS011;22617;43.690;27.956;2022-12-18T21:45:50;36.33;;;13.77;;
18695;SDS011;22617;43.690;27.956;2022-12-18T21:50:54;42.13;;;15.17;;
18695;SDS011;22617;43.690;27.956;2022-12-18T21:55:58;40.40;;;15.70;;
18695;SDS011;22617;43.690;27.956;2022-12-18T22:01:02;46.37;;;17.03;;
18695;SDS011;22617;43.690;27.956;2022-12-18T22:06:07;44.53;;;16.60;;
18695;SDS011;22617;43.690;27.956;2022-12-18T22:11:11;50.67;;;17.87;;
18695;SDS011;22617;43.690;27.956;2022-12-18T22:16:16;56.90;;;19.30;;
18695;SDS011;22617;43.690;27.956;2022-12-18T22:21:22;49.67;;;18.57;;
18695;SDS011;22617;43.690;27.956;2022-12-18T22:26:31;53.30;;;19.53;;
18695;SDS011;22617;43.690;27.956;2022-12-18T22:31:40;49.77;;;19.13;;
18695;SDS011;22617;43.690;27.956;2022-12-18T22:36:46;58.77;;;20.80;;
18695;SDS011;22617;43.690;27.956;2022-12-18T22:41:50;58.73;;;21.43;;
18695;SDS011;22617;43.690;27.956;2022-12-18T22:46:54;55.30;;;20.07;;
18695;SDS011;22617;43.690;27.956;2022-12-18T22:52:09;64.50;;;21.70;;
18695;SDS011;22617;43.690;27.956;2022-12-18T22:57:13;50.90;;;19.07;;
18695;SDS011;22617;43.690;27.956;2022-12-18T23:02:17;60.27;;;21.33;;
18695;SDS011;22617;43.690;27.956;2022-12-18T23:07:23;58.73;;;20.40;;
18695;SDS011;22617;43.690;27.956;2022-12-18T23:12:26;53.97;;;19.87;;
18695;SDS011;22617;43.690;27.956;2022-12-18T23:17:30;56.13;;;19.67;;
18695;SDS011;22617;43.690;27.956;2022-12-18T23:22:34;54.63;;;19.17;;
18695;SDS011;22617;43.690;27.956;2022-12-18T23:27:38;50.20;;;18.90;;
18695;SDS011;22617;43.690;27.956;2022-12-18T23:32:41;48.03;;;18.40;;
18695;SDS011;22617;43.690;27.956;2022-12-18T23:37:46;53.00;;;17.97;;
18695;SDS011;22617;43.690;27.956;2022-12-18T23:43:00;50.53;;;17.40;;
18695;SDS011;22617;43.690;27.956;2022-12-18T23:48:03;46.07;;;16.57;;
18695;SDS011;22617;43.690;27.956;2022-12-18T23:53:08;44.27;;;16.43;;
18695;SDS011;22617;43.690;27.956;2022-12-18T23:58:14;43.70;;;15.27;;
